Time;durP1;ratioP1;P1;durP2;ratioP2;P2;SDS_P1;SDS_P2;PMS_P1;PMS_P2;Temp;Humidity;BMP_temperature;BMP_pressure;BME280_temperature;BME280_humidity;BME280_pressure;Samples;Min_cycle;Max_cycle;Signal;HPM_P1;HPM_P2
2022/07/02 00:02:11;;;;;;;0.90;0.47;;;22.40;59.70;;;;;;5063044;28;20051;-22
2022/07/02 00:04:36;;;;;;;0.38;0.38;;;22.50;59.70;;;;;;5061589;28;20049;-22
2022/07/02 00:07:02;;;;;;;0.63;0.60;;;22.50;59.50;;;;;;5049939;28;20048;-26
2022/07/02 00:09:28;;;;;;;0.73;0.63;;;22.50;59.60;;;;;;5039556;28;20543;-24
2022/07/02 00:11:57;;;;;;;2.03;0.47;;;22.50;59.60;;;;;;5039581;28;20083;-22
2022/07/02 00:14:23;;;;;;;1.02;0.68;;;22.50;59.90;;;;;;5037588;28;20072;-21
2022/07/02 00:16:49;;;;;;;0.45;0.45;;;22.50;59.50;;;;;;5061307;28;20179;-20
2022/07/02 00:19:14;;;;;;;1.52;0.50;;;22.50;60.00;;;;;;5062162;28;20136;-20
2022/07/02 00:21:40;;;;;;;1.17;0.45;;;22.50;59.90;;;;;;5050507;28;20041;-23
2022/07/02 00:24:07;;;;;;;0.50;0.45;;;22.40;59.70;;;;;;5048836;28;20040;-25
2022/07/02 00:26:33;;;;;;;0.60;0.60;;;22.40;59.80;;;;;;5058585;28;20071;-22
2022/07/02 00:29:36;;;;;;;0.73;0.65;;;22.40;59.70;;;;;;5038422;28;20449;-21
2022/07/02 00:32:04;;;;;;;1.10;0.60;;;22.40;59.70;;;;;;4980363;28;20546;-21
2022/07/02 00:34:31;;;;;;;0.65;0.60;;;22.50;59.60;;;;;;4991547;28;20054;-21
2022/07/02 00:36:56;;;;;;;0.73;0.50;;;22.40;59.60;;;;;;4994257;28;20134;-26
2022/07/02 00:39:22;;;;;;;0.30;0.30;;;22.40;59.80;;;;;;4980580;28;20124;-24
2022/07/02 00:41:47;;;;;;;0.82;0.50;;;22.40;59.80;;;;;;4969683;28;20147;-20
2022/07/02 00:44:13;;;;;;;1.38;0.50;;;22.40;59.70;;;;;;4996803;28;20154;-24
2022/07/02 00:46:38;;;;;;;1.45;0.50;;;22.40;59.80;;;;;;4997754;28;20046;-23
2022/07/02 00:49:04;;;;;;;0.68;0.50;;;22.40;59.90;;;;;;4990910;28;20581;-21
2022/07/02 00:51:30;;;;;;;0.35;0.35;;;22.40;59.80;;;;;;4988885;28;20045;-23
2022/07/02 00:53:55;;;;;;;0.50;0.47;;;22.30;59.80;;;;;;4996005;28;20050;-23
2022/07/02 00:56:21;;;;;;;0.40;0.30;;;22.40;60.40;;;;;;4993495;28;20072;-24
2022/07/02 00:58:46;;;;;;;0.50;0.50;;;22.30;59.80;;;;;;4994480;28;20100;-24
2022/07/02 01:01:12;;;;;;;0.60;0.60;;;22.30;59.80;;;;;;5002566;28;20051;-22
2022/07/02 01:03:38;;;;;;;0.88;0.45;;;22.40;59.60;;;;;;4993290;28;20116;-22
2022/07/02 01:06:04;;;;;;;0.40;0.40;;;22.40;59.60;;;;;;4990166;28;20049;-25
2022/07/02 01:11:14;;;;;;;0.40;0.40;;;22.40;59.60;;;;;;5067846;28;20132;-25
2022/07/02 01:13:40;;;;;;;0.40;0.40;;;22.30;59.50;;;;;;5063935;28;20127;-24
2022/07/02 01:16:05;;;;;;;0.73;0.50;;;22.30;59.80;;;;;;5055839;28;20048;-22
2022/07/02 01:18:31;;;;;;;0.43;0.43;;;22.30;59.50;;;;;;5052476;28;20041;-24
2022/07/02 01:20:56;;;;;;;0.80;0.40;;;22.30;59.60;;;;;;5041347;28;20501;-24
2022/07/02 01:23:22;;;;;;;1.10;0.32;;;22.30;59.70;;;;;;5061981;28;20438;-26
2022/07/02 01:25:51;;;;;;;0.63;0.40;;;22.30;59.50;;;;;;5064338;28;20052;-23
2022/07/02 01:28:17;;;;;;;0.50;0.40;;;22.30;59.40;;;;;;5046117;28;20045;-23
2022/07/02 01:30:43;;;;;;;0.38;0.30;;;22.30;59.50;;;;;;5060355;28;20527;-21
2022/07/02 01:33:08;;;;;;;0.57;0.40;;;22.30;59.40;;;;;;5029265;28;20072;-24
2022/07/02 01:35:34;;;;;;;0.82;0.50;;;22.30;59.50;;;;;;5043524;28;20037;-25
2022/07/02 01:38:00;;;;;;;0.45;0.40;;;22.30;59.50;;;;;;5061121;28;20067;-22
2022/07/02 01:40:25;;;;;;;0.40;0.30;;;22.30;59.50;;;;;;5049897;28;20044;-25
2022/07/02 01:42:51;;;;;;;0.30;0.30;;;22.30;59.50;;;;;;5063032;28;20079;-25
2022/07/02 01:45:16;;;;;;;0.30;0.30;;;22.30;59.60;;;;;;5038706;28;20045;-22
2022/07/02 01:47:42;;;;;;;0.30;0.30;;;22.20;59.60;;;;;;5038986;28;20051;-21
2022/07/02 01:50:08;;;;;;;0.68;0.50;;;22.20;59.60;;;;;;5059002;28;20029;-25
2022/07/02 01:52:33;;;;;;;0.63;0.50;;;22.20;59.50;;;;;;5059968;28;20045;-28
2022/07/02 01:54:59;;;;;;;0.40;0.40;;;22.20;59.50;;;;;;5053666;28;20113;-22
2022/07/02 01:57:25;;;;;;;0.85;0.40;;;22.30;59.50;;;;;;5062055;28;20048;-24
2022/07/02 01:59:50;;;;;;;0.68;0.20;;;22.30;59.40;;;;;;5052670;28;20051;-22
2022/07/02 02:02:16;;;;;;;0.50;0.40;;;22.20;59.50;;;;;;5037884;28;20549;-22
2022/07/02 02:04:42;;;;;;;0.30;0.30;;;22.20;59.60;;;;;;5041864;28;20051;-21
2022/07/02 02:07:07;;;;;;;0.45;0.35;;;22.20;59.50;;;;;;5040919;28;20418;-23
2022/07/02 02:09:33;;;;;;;0.43;0.35;;;22.20;59.50;;;;;;5056688;28;20260;-23
2022/07/02 02:11:59;;;;;;;0.30;0.30;;;22.20;59.50;;;;;;5050117;28;20432;-23
2022/07/02 02:14:24;;;;;;;0.50;0.38;;;22.20;59.60;;;;;;5055064;28;20055;-23
2022/07/02 02:16:50;;;;;;;0.30;0.30;;;22.20;59.40;;;;;;5034357;28;20041;-21
2022/07/02 02:19:15;;;;;;;0.50;0.40;;;22.20;59.30;;;;;;5037850;28;20497;-21
2022/07/02 02:21:41;;;;;;;0.22;0.20;;;22.20;59.40;;;;;;5039037;28;20037;-24
2022/07/02 02:24:07;;;;;;;0.25;0.25;;;22.20;59.50;;;;;;5057633;28;20056;-25
2022/07/02 02:26:32;;;;;;;0.20;0.20;;;22.20;59.50;;;;;;5063363;28;20125;-23
2022/07/02 02:28:58;;;;;;;0.43;0.40;;;22.20;59.40;;;;;;5045802;28;20505;-24
2022/07/02 02:31:24;;;;;;;0.25;0.20;;;22.20;59.40;;;;;;5062508;28;20044;-22
2022/07/02 02:33:49;;;;;;;0.40;0.40;;;22.20;59.40;;;;;;5049091;28;20514;-25
2022/07/02 02:36:15;;;;;;;0.57;0.30;;;22.20;59.40;;;;;;5067851;28;20059;-20
2022/07/02 02:38:41;;;;;;;0.32;0.30;;;22.20;59.40;;;;;;5058000;28;20390;-23
2022/07/02 02:41:07;;;;;;;0.30;0.30;;;22.20;59.40;;;;;;5048042;28;20131;-22
2022/07/02 02:43:33;;;;;;;0.22;0.22;;;22.20;59.50;;;;;;5054770;28;20107;-22
2022/07/02 02:45:59;;;;;;;0.22;0.22;;;22.20;59.50;;;;;;5060014;28;20412;-22
2022/07/02 02:48:25;;;;;;;0.40;0.30;;;22.20;59.50;;;;;;5059825;28;20049;-24
2022/07/02 02:50:51;;;;;;;0.85;0.30;;;22.20;59.50;;;;;;5050854;28;20071;-24
2022/07/02 02:53:16;;;;;;;0.30;0.30;;;22.20;59.50;;;;;;5065466;28;20037;-22
2022/07/02 02:55:42;;;;;;;0.30;0.30;;;22.10;59.50;;;;;;5054224;28;20127;-24
2022/07/02 02:58:08;;;;;;;0.20;0.20;;;22.20;59.40;;;;;;5053030;28;20055;-27
2022/07/02 03:00:33;;;;;;;0.77;0.30;;;22.20;59.60;;;;;;5053022;28;20047;-26
2022/07/02 03:02:59;;;;;;;0.30;0.30;;;22.10;59.50;;;;;;5055093;28;20448;-25
2022/07/02 03:05:25;;;;;;;0.30;0.30;;;22.10;59.60;;;;;;5062871;28;20045;-24
2022/07/02 03:07:50;;;;;;;0.47;0.45;;;22.10;59.60;;;;;;5042917;28;20041;-22
2022/07/02 03:10:16;;;;;;;0.35;0.35;;;22.20;59.50;;;;;;5055409;28;20053;-24
2022/07/02 03:12:41;;;;;;;0.40;0.40;;;22.20;59.50;;;;;;5047637;28;20060;-19
2022/07/02 03:15:08;;;;;;;0.30;0.30;;;22.20;59.50;;;;;;5064167;28;20095;-21
2022/07/02 03:17:33;;;;;;;1.27;0.85;;;22.20;59.60;;;;;;5055026;28;20044;-24
2022/07/02 03:19:59;;;;;;;0.50;0.50;;;22.20;59.60;;;;;;5054088;28;20123;-21
2022/07/02 03:22:24;;;;;;;0.30;0.30;;;22.10;59.50;;;;;;5040224;28;20498;-21
2022/07/02 03:24:51;;;;;;;0.25;0.25;;;22.10;59.60;;;;;;5060938;28;20048;-23
2022/07/02 03:27:16;;;;;;;0.30;0.20;;;22.10;59.60;;;;;;5066360;28;20409;-23
2022/07/02 03:29:42;;;;;;;0.30;0.25;;;22.10;59.60;;;;;;5064148;28;20041;-25
2022/07/02 03:32:08;;;;;;;0.20;0.20;;;22.10;59.60;;;;;;5064431;28;20094;-22
2022/07/02 03:34:33;;;;;;;0.50;0.30;;;22.10;59.60;;;;;;5064870;28;20090;-21
2022/07/02 03:36:59;;;;;;;0.30;0.30;;;22.10;60.20;;;;;;5062822;28;20465;-22
2022/07/02 03:39:24;;;;;;;0.63;0.30;;;22.10;59.60;;;;;;5066504;28;20040;-25
2022/07/02 03:41:50;;;;;;;0.20;0.20;;;22.10;59.60;;;;;;5064810;28;20032;-22
2022/07/02 03:44:15;;;;;;;0.38;0.38;;;22.10;59.60;;;;;;5066717;28;20408;-24
2022/07/02 03:46:41;;;;;;;0.30;0.30;;;22.10;59.70;;;;;;5064752;28;20082;-23
2022/07/02 03:49:06;;;;;;;0.17;0.15;;;22.10;59.70;;;;;;5065246;28;20071;-23
2022/07/02 03:51:32;;;;;;;0.20;0.20;;;22.10;59.80;;;;;;5066026;28;20044;-24
2022/07/02 03:53:58;;;;;;;0.30;0.30;;;22.10;60.50;;;;;;5062629;28;20060;-22
2022/07/02 03:56:23;;;;;;;0.30;0.20;;;22.10;59.70;;;;;;5064222;28;20069;-22
2022/07/02 03:58:49;;;;;;;0.30;0.30;;;22.10;60.10;;;;;;5063897;28;20054;-21
2022/07/02 04:01:14;;;;;;;0.20;0.20;;;22.10;59.80;;;;;;5065333;28;20040;-21
2022/07/02 04:03:40;;;;;;;0.20;0.20;;;22.10;59.80;;;;;;5065752;28;20053;-23
2022/07/02 04:06:06;;;;;;;0.20;0.20;;;22.10;59.90;;;;;;5049577;28;20048;-24
2022/07/02 04:08:32;;;;;;;0.30;0.30;;;22.10;59.90;;;;;;5055182;28;20095;-23
2022/07/02 04:10:57;;;;;;;0.30;0.30;;;22.10;59.80;;;;;;5053770;28;20044;-20
2022/07/02 04:13:23;;;;;;;0.20;0.20;;;22.10;59.90;;;;;;5056225;28;20517;-22
2022/07/02 04:15:48;;;;;;;1.90;0.25;;;22.00;60.00;;;;;;5036009;28;20459;-26
2022/07/02 04:18:14;;;;;;;0.20;0.20;;;22.00;60.10;;;;;;5037890;28;20124;-23
2022/07/02 04:20:39;;;;;;;0.45;0.45;;;22.00;60.10;;;;;;5037674;28;20055;-26
2022/07/02 04:23:05;;;;;;;0.20;0.20;;;22.00;60.10;;;;;;5038636;28;20755;-24
2022/07/02 04:25:30;;;;;;;0.30;0.20;;;22.00;60.00;;;;;;5034759;28;20418;-25
2022/07/02 04:27:56;;;;;;;0.20;0.20;;;22.00;59.90;;;;;;5057901;28;20044;-23
2022/07/02 04:30:22;;;;;;;0.43;0.40;;;22.00;60.80;;;;;;5049404;28;20475;-25
2022/07/02 04:32:47;;;;;;;0.38;0.28;;;22.00;60.00;;;;;;5051079;28;20130;-23
2022/07/02 04:35:13;;;;;;;0.30;0.30;;;22.10;60.10;;;;;;5065418;28;20091;-25
2022/07/02 04:37:38;;;;;;;1.15;0.20;;;22.00;60.00;;;;;;5064768;28;20048;-20
2022/07/02 04:40:05;;;;;;;0.32;0.20;;;22.00;60.20;;;;;;5048832;28;20045;-23
2022/07/02 04:42:30;;;;;;;0.25;0.25;;;22.00;60.20;;;;;;5065311;28;20531;-21
2022/07/02 04:44:56;;;;;;;0.20;0.20;;;22.00;60.20;;;;;;5054871;28;20053;-22
2022/07/02 04:47:21;;;;;;;0.30;0.30;;;22.00;60.30;;;;;;5052396;28;20102;-21
2022/07/02 04:49:47;;;;;;;0.30;0.30;;;22.00;60.30;;;;;;5046911;28;20121;-21
2022/07/02 04:52:12;;;;;;;0.20;0.20;;;22.00;60.10;;;;;;5061383;28;20051;-22
2022/07/02 04:54:38;;;;;;;0.40;0.35;;;22.00;60.10;;;;;;5050543;28;20493;-23
2022/07/02 04:57:04;;;;;;;0.13;0.10;;;22.00;60.90;;;;;;5046430;28;20051;-23
2022/07/02 04:59:29;;;;;;;0.47;0.30;;;22.00;60.30;;;;;;5051096;28;20061;-22
2022/07/02 05:01:55;;;;;;;0.17;0.13;;;22.00;60.30;;;;;;5041431;28;20079;-22
2022/07/02 05:04:21;;;;;;;0.20;0.15;;;22.00;60.30;;;;;;5050997;28;20516;-21
2022/07/02 05:06:46;;;;;;;0.35;0.35;;;21.90;60.20;;;;;;5044682;28;20049;-26
2022/07/02 05:09:12;;;;;;;0.20;0.20;;;22.00;60.30;;;;;;5062899;28;20132;-22
2022/07/02 05:11:37;;;;;;;0.30;0.28;;;21.90;60.30;;;;;;5063683;28;20041;-25
2022/07/02 05:14:03;;;;;;;0.17;0.17;;;21.90;60.30;;;;;;5053685;28;20044;-24
2022/07/02 05:16:29;;;;;;;0.80;0.25;;;22.00;60.30;;;;;;5062567;28;21534;-23
2022/07/02 05:18:55;;;;;;;0.35;0.25;;;21.90;60.40;;;;;;5063030;28;20060;-20
2022/07/02 05:21:20;;;;;;;0.55;0.20;;;22.00;60.30;;;;;;5060485;28;20037;-23
2022/07/02 05:23:46;;;;;;;0.20;0.20;;;21.90;60.30;;;;;;5062038;28;20040;-23
2022/07/02 05:26:11;;;;;;;0.20;0.20;;;22.00;60.50;;;;;;5062546;28;20052;-24
2022/07/02 05:28:37;;;;;;;0.20;0.20;;;22.00;60.50;;;;;;5064613;28;20044;-21
2022/07/02 05:31:02;;;;;;;0.22;0.22;;;21.90;60.50;;;;;;5061315;28;20152;-23
2022/07/02 05:33:28;;;;;;;0.25;0.20;;;22.00;60.50;;;;;;5060749;28;20044;-22
2022/07/02 05:35:54;;;;;;;0.52;0.20;;;21.90;60.50;;;;;;5061964;28;20133;-22
2022/07/02 05:38:19;;;;;;;0.20;0.17;;;21.90;60.50;;;;;;5045749;28;20131;-22
2022/07/02 05:40:46;;;;;;;0.38;0.25;;;21.90;60.50;;;;;;5060390;28;20044;-28
2022/07/02 05:43:11;;;;;;;0.10;0.10;;;21.90;60.50;;;;;;5065017;28;20392;-22
2022/07/02 05:45:37;;;;;;;0.10;0.10;;;21.90;60.50;;;;;;5046595;28;20052;-21
2022/07/02 05:48:03;;;;;;;0.15;0.15;;;21.90;60.60;;;;;;5060317;28;20461;-24
2022/07/02 05:50:29;;;;;;;0.25;0.20;;;21.80;60.50;;;;;;5046277;28;20051;-23
2022/07/02 05:52:54;;;;;;;0.20;0.20;;;21.90;60.60;;;;;;5065349;28;20044;-21
2022/07/02 05:55:20;;;;;;;0.10;0.10;;;21.90;60.50;;;;;;5060611;28;20053;-23
2022/07/02 05:57:45;;;;;;;0.30;0.30;;;21.90;60.60;;;;;;5053710;28;20040;-22
2022/07/02 06:00:11;;;;;;;0.20;0.20;;;21.80;60.50;;;;;;5053930;28;20524;-27
2022/07/02 06:02:37;;;;;;;0.22;0.10;;;21.90;60.70;;;;;;5056492;28;20513;-25
2022/07/02 06:07:47;;;;;;;0.25;0.20;;;21.90;60.60;;;;;;5066205;28;20043;-22
2022/07/02 06:10:19;;;;;;;0.10;0.10;;;21.90;60.60;;;;;;5056872;28;20048;-24
2022/07/02 06:12:46;;;;;;;0.10;0.10;;;21.80;60.60;;;;;;5054620;28;20052;-25
2022/07/02 06:15:12;;;;;;;0.20;0.20;;;21.90;60.60;;;;;;5060360;28;20060;-23
2022/07/02 06:17:37;;;;;;;0.30;0.20;;;21.80;60.60;;;;;;5045995;28;20059;-25
2022/07/02 06:20:03;;;;;;;0.40;0.30;;;21.80;60.60;;;;;;5060332;28;20098;-22
2022/07/02 06:22:28;;;;;;;0.20;0.20;;;21.90;60.70;;;;;;5048514;28;20044;-22
2022/07/02 06:24:55;;;;;;;0.20;0.20;;;21.80;60.50;;;;;;5054147;28;20044;-25
2022/07/02 06:27:21;;;;;;;0.10;0.10;;;21.90;60.70;;;;;;5056572;28;20127;-24
2022/07/02 06:29:48;;;;;;;0.40;0.10;;;21.90;60.70;;;;;;5067284;28;20156;-21
2022/07/02 06:32:15;;;;;;;0.10;0.10;;;21.80;60.70;;;;;;5060018;28;20047;-22
2022/07/02 06:34:41;;;;;;;0.25;0.20;;;21.90;60.70;;;;;;5054240;28;20405;-21
2022/07/02 06:37:07;;;;;;;0.20;0.10;;;21.90;60.70;;;;;;5049970;28;20045;-24
2022/07/02 06:39:32;;;;;;;0.13;0.13;;;21.90;60.70;;;;;;5055413;28;20053;-23
2022/07/02 06:44:42;;;;;;;0.20;0.20;;;21.90;60.70;;;;;;5055648;28;20098;-24
2022/07/02 06:47:08;;;;;;;0.10;0.10;;;21.90;60.70;;;;;;4684345;28;10000099;-26
2022/07/02 06:49:33;;;;;;;0.70;0.40;;;21.90;60.80;;;;;;5051022;28;20069;-23
2022/07/02 06:51:59;;;;;;;0.40;0.20;;;21.90;60.80;;;;;;5035386;28;20171;-21
2022/07/02 06:54:24;;;;;;;0.20;0.20;;;21.90;60.70;;;;;;5050618;28;20052;-22
2022/07/02 06:56:50;;;;;;;1.95;0.28;;;21.90;61.30;;;;;;5046678;28;20044;-22
2022/07/02 06:59:15;;;;;;;0.20;0.10;;;22.00;60.50;;;;;;5054994;28;20041;-22
2022/07/02 07:01:41;;;;;;;0.35;0.20;;;21.90;60.50;;;;;;5037649;28;20094;-25
2022/07/02 07:04:07;;;;;;;0.25;0.20;;;22.00;60.60;;;;;;5057076;28;20045;-26
2022/07/02 07:06:36;;;;;;;0.17;0.10;;;21.90;60.50;;;;;;5049263;28;20423;-25
2022/07/02 07:09:01;;;;;;;0.20;0.20;;;22.00;60.50;;;;;;5054576;28;20136;-23
2022/07/02 07:11:27;;;;;;;0.20;0.20;;;22.00;60.40;;;;;;5037779;28;20132;-26
2022/07/02 07:13:52;;;;;;;0.10;0.10;;;22.00;60.50;;;;;;4696967;28;9999731;-23
2022/07/02 07:16:18;;;;;;;0.20;0.20;;;22.00;60.50;;;;;;5049824;28;20128;-24
2022/07/02 07:18:50;;;;;;;0.10;0.10;;;22.00;60.50;;;;;;5039906;28;20044;-22
2022/07/02 07:21:15;;;;;;;0.10;0.10;;;22.00;60.50;;;;;;5041885;28;20738;-25
2022/07/02 07:23:41;;;;;;;0.20;0.20;;;22.00;60.30;;;;;;5045739;28;20049;-23
2022/07/02 07:26:07;;;;;;;0.13;0.10;;;22.00;60.20;;;;;;5045852;28;20112;-21
2022/07/02 07:28:32;;;;;;;0.20;0.10;;;22.00;59.90;;;;;;5041268;28;20046;-21
2022/07/02 07:30:58;;;;;;;0.20;0.20;;;22.00;59.80;;;;;;5037272;28;20037;-24
2022/07/02 07:33:23;;;;;;;0.90;0.20;;;21.90;61.00;;;;;;5037955;28;20516;-23
2022/07/02 07:35:49;;;;;;;0.22;0.20;;;22.00;60.00;;;;;;5052176;28;20456;-25
2022/07/02 07:38:14;;;;;;;0.20;0.20;;;22.00;59.90;;;;;;5054470;28;20032;-25
2022/07/02 07:40:40;;;;;;;0.25;0.25;;;22.00;60.10;;;;;;5046014;28;20521;-24
2022/07/02 07:43:06;;;;;;;0.10;0.10;;;22.00;60.10;;;;;;5048220;28;20416;-21
2022/07/02 07:45:31;;;;;;;0.20;0.20;;;22.00;60.80;;;;;;5040344;28;20083;-27
2022/07/02 07:47:57;;;;;;;0.57;0.30;;;22.00;60.10;;;;;;5057662;28;20063;-22
2022/07/02 07:50:22;;;;;;;0.20;0.20;;;22.00;60.00;;;;;;5062203;28;20056;-27
2022/07/02 07:52:48;;;;;;;0.43;0.20;;;22.00;59.90;;;;;;5064070;28;20055;-23
2022/07/02 07:55:14;;;;;;;0.13;0.13;;;22.00;60.10;;;;;;5063327;28;20463;-23
2022/07/02 07:57:40;;;;;;;0.47;0.20;;;22.00;59.00;;;;;;5061239;28;20044;-22
2022/07/02 08:00:06;;;;;;;0.88;0.20;;;21.90;59.30;;;;;;5053745;28;20036;-21
2022/07/02 08:02:31;;;;;;;0.68;0.30;;;22.00;60.80;;;;;;5055112;28;20040;-25
2022/07/02 08:04:57;;;;;;;0.30;0.30;;;22.00;59.80;;;;;;5047813;28;20045;-23
2022/07/02 08:07:23;;;;;;;0.90;0.20;;;22.00;61.90;;;;;;5039013;28;20060;-22
2022/07/02 08:09:54;;;;;;;4.57;0.63;;;22.00;61.80;;;;;;5056450;28;20124;-23
2022/07/02 08:12:22;;;;;;;0.43;0.30;;;22.00;61.80;;;;;;5053845;28;20102;-23
2022/07/02 08:14:48;;;;;;;1.27;0.40;;;22.00;62.00;;;;;;5041604;28;20053;-24
2022/07/02 08:17:14;;;;;;;0.30;0.20;;;22.00;62.00;;;;;;5037162;28;20036;-23
2022/07/02 08:19:39;;;;;;;0.35;0.30;;;22.00;62.10;;;;;;5042071;28;20068;-25
2022/07/02 08:22:05;;;;;;;2.33;0.50;;;22.00;62.80;;;;;;5034336;28;20088;-21
2022/07/02 08:24:31;;;;;;;1.85;0.30;;;22.00;62.50;;;;;;5053202;28;20036;-22
2022/07/02 08:26:56;;;;;;;3.08;0.55;;;22.00;62.70;;;;;;5051407;28;20531;-27
2022/07/02 08:29:22;;;;;;;0.20;0.20;;;22.00;62.60;;;;;;5063146;28;20451;-28
2022/07/02 08:31:47;;;;;;;1.00;0.30;;;22.10;62.50;;;;;;5062313;28;20048;-22
2022/07/02 08:34:13;;;;;;;0.60;0.30;;;22.10;62.00;;;;;;5059562;28;20504;-25
2022/07/02 08:36:38;;;;;;;2.17;0.70;;;22.10;62.00;;;;;;5063215;28;20051;-25
2022/07/02 08:39:04;;;;;;;1.23;0.57;;;22.10;62.20;;;;;;5061287;28;20053;-24
2022/07/02 08:41:30;;;;;;;3.42;0.47;;;22.10;61.90;;;;;;5065473;28;20090;-23
2022/07/02 08:43:55;;;;;;;0.60;0.32;;;22.10;62.70;;;;;;5050964;28;20076;-25
2022/07/02 08:46:21;;;;;;;1.48;0.17;;;22.10;60.70;;;;;;5043593;28;20537;-24
2022/07/02 08:48:46;;;;;;;0.20;0.20;;;22.10;59.90;;;;;;5062371;28;20552;-25
2022/07/02 08:51:13;;;;;;;2.72;0.30;;;22.00;59.30;;;;;;5063560;28;20414;-23
2022/07/02 08:53:40;;;;;;;1.75;0.30;;;22.00;60.00;;;;;;5048794;28;20056;-25
2022/07/02 08:56:07;;;;;;;0.30;0.20;;;22.10;59.60;;;;;;5037265;28;20090;-23
2022/07/02 08:58:34;;;;;;;1.05;0.30;;;22.10;60.40;;;;;;5036511;28;20047;-24
2022/07/02 09:01:00;;;;;;;0.88;0.28;;;22.10;58.80;;;;;;5050726;28;20408;-23
2022/07/02 09:03:25;;;;;;;1.42;0.40;;;22.00;58.50;;;;;;5032060;28;20045;-25
2022/07/02 09:05:51;;;;;;;0.40;0.28;;;22.00;58.60;;;;;;5060413;28;20025;-25
2022/07/02 09:08:17;;;;;;;0.60;0.13;;;22.00;58.40;;;;;;5043202;28;20559;-23
2022/07/02 09:10:43;;;;;;;1.30;0.30;;;22.00;59.10;;;;;;5065514;28;20049;-23
2022/07/02 09:13:10;;;;;;;0.93;0.35;;;22.10;59.20;;;;;;5063635;28;20086;-26
2022/07/02 09:15:36;;;;;;;0.10;0.10;;;22.10;59.40;;;;;;5037578;28;20037;-22
2022/07/02 09:18:01;;;;;;;0.77;0.30;;;22.20;58.90;;;;;;5043230;28;20111;-25
2022/07/02 09:20:27;;;;;;;1.10;0.30;;;22.20;58.40;;;;;;5036564;28;20107;-27
2022/07/02 09:22:53;;;;;;;1.50;0.63;;;22.20;59.00;;;;;;5044569;28;20048;-23
2022/07/02 09:25:24;;;;;;;0.75;0.30;;;22.20;59.00;;;;;;5042646;28;20095;-22
2022/07/02 09:27:57;;;;;;;0.38;0.20;;;22.20;58.70;;;;;;5043113;28;20057;-24
2022/07/02 09:30:23;;;;;;;1.75;0.30;;;22.20;59.20;;;;;;5066207;28;20064;-25
2022/07/02 09:32:48;;;;;;;0.25;0.15;;;22.20;59.90;;;;;;5065442;28;20497;-23
2022/07/02 09:35:21;;;;;;;0.85;0.45;;;22.20;59.00;;;;;;5053445;28;20040;-24
2022/07/02 09:37:48;;;;;;;0.25;0.10;;;22.20;58.80;;;;;;5055539;28;20067;-24
2022/07/02 09:40:14;;;;;;;0.82;0.32;;;22.20;58.70;;;;;;5054908;28;20124;-27
2022/07/02 09:42:39;;;;;;;0.73;0.38;;;22.20;58.50;;;;;;5062171;28;20116;-24
2022/07/02 09:45:06;;;;;;;2.80;0.10;;;22.20;58.40;;;;;;5058139;28;20044;-21
2022/07/02 09:47:36;;;;;;;1.70;0.20;;;22.30;58.50;;;;;;5057598;28;20099;-21
2022/07/02 09:50:11;;;;;;;0.20;0.13;;;22.20;58.40;;;;;;5040920;28;20061;-26
2022/07/02 09:52:48;;;;;;;0.20;0.13;;;22.20;58.10;;;;;;5053606;28;20041;-24
2022/07/02 09:55:20;;;;;;;1.60;0.20;;;22.30;58.20;;;;;;5059966;28;20130;-21
2022/07/02 09:58:00;;;;;;;0.60;0.20;;;22.30;58.10;;;;;;5041221;28;20481;-25
2022/07/02 10:00:27;;;;;;;0.30;0.20;;;22.30;58.00;;;;;;5063148;28;20952;-22
2022/07/02 10:02:54;;;;;;;0.32;0.10;;;22.30;58.10;;;;;;5054478;28;20481;-24
2022/07/02 10:05:33;;;;;;;0.45;0.43;;;22.30;57.80;;;;;;5058763;28;20041;-25
2022/07/02 10:08:01;;;;;;;0.52;0.20;;;22.30;58.00;;;;;;5049522;28;20044;-23
2022/07/02 10:10:40;;;;;;;0.20;0.10;;;22.30;57.80;;;;;;5063300;28;20044;-23
2022/07/02 10:13:10;;;;;;;0.70;0.28;;;22.30;57.90;;;;;;5048689;28;20049;-22
2022/07/02 10:15:39;;;;;;;0.45;0.25;;;22.30;57.80;;;;;;5056550;28;20036;-25
2022/07/02 10:18:05;;;;;;;0.65;0.20;;;22.30;57.80;;;;;;5064990;28;20036;-26
2022/07/02 10:20:31;;;;;;;0.40;0.20;;;22.30;57.70;;;;;;5056969;28;20417;-24
2022/07/02 10:23:02;;;;;;;0.43;0.30;;;22.40;57.80;;;;;;5040037;28;20052;-24
2022/07/02 10:25:28;;;;;;;1.40;0.28;;;22.30;58.10;;;;;;5059080;28;20055;-22
2022/07/02 10:27:55;;;;;;;0.45;0.30;;;22.30;57.70;;;;;;5058056;28;20037;-23
2022/07/02 10:30:28;;;;;;;0.22;0.10;;;22.30;58.00;;;;;;5056700;28;20347;-26
2022/07/02 10:33:12;;;;;;;0.45;0.22;;;22.30;57.80;;;;;;5056279;28;20052;-23
2022/07/02 10:35:38;;;;;;;0.20;0.20;;;22.30;57.90;;;;;;5056019;28;20037;-23
2022/07/02 10:38:04;;;;;;;0.57;0.20;;;22.30;57.70;;;;;;5038302;28;20041;-23
2022/07/02 10:40:29;;;;;;;0.20;0.13;;;22.30;58.00;;;;;;5033376;28;20074;-26
2022/07/02 10:42:59;;;;;;;0.30;0.20;;;22.30;57.90;;;;;;5061177;28;20056;-26
2022/07/02 10:45:25;;;;;;;0.10;0.10;;;22.30;58.20;;;;;;5054650;28;20516;-24
2022/07/02 10:47:57;;;;;;;0.17;0.17;;;22.30;57.80;;;;;;5056567;28;20044;-25
2022/07/02 10:50:35;;;;;;;0.55;0.20;;;22.30;57.90;;;;;;5053120;28;20488;-24
2022/07/02 10:53:20;;;;;;;1.10;0.22;;;22.30;57.90;;;;;;5053618;28;20137;-27
2022/07/02 10:55:55;;;;;;;0.10;0.10;;;22.30;57.70;;;;;;5055420;28;22554;-23
2022/07/02 10:58:25;;;;;;;0.40;0.30;;;22.30;57.90;;;;;;5054581;28;20033;-23
2022/07/02 11:00:51;;;;;;;0.68;0.17;;;22.40;58.30;;;;;;5058088;28;20040;-24
2022/07/02 11:03:18;;;;;;;0.43;0.25;;;22.30;57.60;;;;;;5056982;28;20044;-27
2022/07/02 11:06:06;;;;;;;0.20;0.10;;;22.40;57.80;;;;;;5056804;28;20041;-23
2022/07/02 11:08:53;;;;;;;0.30;0.10;;;22.30;57.70;;;;;;5058014;28;20054;-22
2022/07/02 11:11:19;;;;;;;0.63;0.10;;;22.30;57.60;;;;;;5049087;28;20091;-23
2022/07/02 11:14:11;;;;;;;0.28;0.10;;;22.30;57.90;;;;;;5060202;28;20448;-24
2022/07/02 11:16:43;;;;;;;0.20;0.10;;;22.30;57.90;;;;;;5043196;28;20040;-25
2022/07/02 11:19:19;;;;;;;0.20;0.20;;;22.30;58.00;;;;;;5051633;28;20483;-22
2022/07/02 11:21:48;;;;;;;0.57;0.20;;;22.30;57.80;;;;;;5039511;28;20410;-24
2022/07/02 11:24:18;;;;;;;1.38;0.30;;;22.40;57.90;;;;;;5061254;28;20408;-22
2022/07/02 11:26:45;;;;;;;0.15;0.10;;;22.30;58.00;;;;;;5058445;28;20464;-26
2022/07/02 11:29:11;;;;;;;1.55;0.20;;;22.40;58.00;;;;;;5059327;28;20036;-24
2022/07/02 11:31:38;;;;;;;0.10;0.10;;;22.30;57.80;;;;;;5053530;28;20051;-23
2022/07/02 11:34:03;;;;;;;0.65;0.20;;;22.30;58.10;;;;;;5051163;28;20044;-22
2022/07/02 11:36:29;;;;;;;0.15;0.05;;;22.40;57.90;;;;;;5054764;28;20102;-23
2022/07/02 11:38:55;;;;;;;0.20;0.17;;;22.30;57.70;;;;;;5046056;28;20098;-24
2022/07/02 11:41:21;;;;;;;0.30;0.17;;;22.40;57.90;;;;;;5044806;28;20042;-22
2022/07/02 11:43:48;;;;;;;0.30;0.10;;;22.40;57.80;;;;;;5045592;28;20052;-24
2022/07/02 11:46:15;;;;;;;0.52;0.20;;;22.40;57.80;;;;;;5062106;28;20040;-24
2022/07/02 11:48:41;;;;;;;0.20;0.20;;;22.40;57.80;;;;;;5039338;28;20083;-23
2022/07/02 11:51:06;;;;;;;0.20;0.20;;;22.40;57.70;;;;;;5041523;28;20065;-22
2022/07/02 11:53:32;;;;;;;0.10;0.10;;;22.30;57.70;;;;;;5061692;28;20056;-24
2022/07/02 11:56:05;;;;;;;0.20;0.10;;;22.40;57.80;;;;;;5053565;28;20512;-26
2022/07/02 11:58:46;;;;;;;0.25;0.10;;;22.40;57.90;;;;;;5053892;28;20041;-28
2022/07/02 12:01:20;;;;;;;0.22;0.10;;;22.40;57.70;;;;;;5055412;28;20052;-22
2022/07/02 12:03:46;;;;;;;;;;;22.40;57.90;;;;;;5060274;28;20576;-22
2022/07/02 12:06:11;;;;;;;0.20;0.10;;;22.40;57.80;;;;;;5053709;28;19921;-24
2022/07/02 12:08:37;;;;;;;0.52;0.20;;;22.40;57.60;;;;;;5051790;28;20053;-23
2022/07/02 12:11:13;;;;;;;0.43;0.20;;;22.50;57.80;;;;;;5042470;28;20041;-30
2022/07/02 12:13:40;;;;;;;0.63;0.13;;;22.40;57.70;;;;;;5052552;28;20149;-24
2022/07/02 12:16:05;;;;;;;0.10;0.10;;;22.40;57.90;;;;;;5055868;28;20682;-25
2022/07/02 12:18:31;;;;;;;0.10;0.10;;;22.40;57.70;;;;;;5055605;28;20049;-25
2022/07/02 12:21:07;;;;;;;0.13;0.10;;;22.40;57.70;;;;;;5053472;28;20127;-24
2022/07/02 12:23:42;;;;;;;0.10;0.10;;;22.50;57.80;;;;;;5055386;28;20103;-23
2022/07/02 12:26:07;;;;;;;0.28;0.20;;;22.50;57.70;;;;;;5056180;28;20036;-23
2022/07/02 12:31:17;;;;;;;;;;;22.50;57.80;;;;;;5053082;28;20063;-28
2022/07/02 12:33:43;;;;;;;0.47;0.20;;;22.50;57.80;;;;;;5060674;28;20381;-27
2022/07/02 12:36:08;;;;;;;0.25;0.10;;;22.50;57.60;;;;;;5054685;28;20048;-23
2022/07/02 12:38:43;;;;;;;0.20;0.10;;;22.50;57.70;;;;;;5049415;28;20055;-22
2022/07/02 12:41:09;;;;;;;0.10;0.10;;;22.50;57.80;;;;;;5056998;28;20064;-22
2022/07/02 12:43:34;;;;;;;0.45;0.20;;;22.50;57.80;;;;;;5055233;28;21179;-22
2022/07/02 12:46:07;;;;;;;0.28;0.10;;;22.50;57.60;;;;;;5038080;28;20089;-22
2022/07/02 12:48:42;;;;;;;0.28;0.10;;;22.50;57.80;;;;;;5063931;28;20052;-25
2022/07/02 12:51:12;;;;;;;0.20;0.05;;;22.50;57.50;;;;;;5056867;28;20508;-23
2022/07/02 12:53:37;;;;;;;0.10;0.10;;;22.50;58.50;;;;;;5043678;28;20126;-26
2022/07/02 12:56:04;;;;;;;1.02;0.10;;;22.50;57.60;;;;;;5057897;28;20076;-23
2022/07/02 12:58:30;;;;;;;0.20;0.10;;;22.50;57.90;;;;;;5058178;28;20048;-23